createdAt,value
2022-10-18T00:02:25.980Z,9.75
2022-10-18T00:04:52.629Z,9.23
2022-10-18T00:07:19.237Z,7.82
2022-10-18T00:09:45.811Z,10.02
2022-10-18T00:12:12.414Z,11.80
2022-10-18T00:14:39.007Z,9.07
2022-10-18T00:17:05.636Z,12.23
2022-10-18T00:19:32.390Z,9.57
2022-10-18T00:21:59.030Z,10.07
2022-10-18T00:24:25.704Z,8.68
2022-10-18T00:26:52.278Z,10.82
2022-10-18T00:29:18.880Z,8.25
2022-10-18T00:31:45.551Z,9.27
2022-10-18T00:34:14.851Z,10.93
2022-10-18T00:36:42.661Z,11.05
2022-10-18T00:39:15.279Z,10.25
2022-10-18T00:41:42.216Z,10.73
2022-10-18T00:44:11.812Z,11.93
2022-10-18T00:46:41.709Z,12.35
2022-10-18T00:49:18.382Z,7.35
2022-10-18T00:52:02.423Z,19.23
2022-10-18T00:54:31.755Z,8.55
2022-10-18T00:56:58.481Z,11.90
2022-10-18T00:59:26.054Z,12.15
2022-10-18T01:01:52.882Z,14.35
2022-10-18T01:04:21.088Z,8.70
2022-10-18T01:07:01.274Z,11.00
2022-10-18T01:09:44.201Z,11.68
2022-10-18T01:12:16.925Z,9.05
2022-10-18T01:15:15.672Z,11.73
2022-10-18T01:17:52.267Z,13.32
2022-10-18T01:21:02.695Z,15.18
2022-10-18T01:24:07.644Z,9.18
2022-10-18T01:26:34.170Z,12.10
2022-10-18T01:29:31.406Z,13.10
2022-10-18T01:32:23.600Z,12.50
2022-10-18T01:34:55.886Z,12.65
2022-10-18T01:37:23.170Z,15.52
2022-10-18T01:39:54.996Z,12.45
2022-10-18T01:42:21.760Z,9.18
2022-10-18T01:44:51.496Z,9.05
2022-10-18T01:47:19.533Z,9.32
2022-10-18T01:49:46.683Z,13.40
2022-10-18T01:52:15.101Z,11.57
2022-10-18T01:54:48.480Z,9.13
2022-10-18T01:57:20.169Z,10.57
2022-10-18T01:59:52.744Z,8.98
2022-10-18T02:02:40.397Z,15.73
2022-10-18T02:05:17.929Z,14.60
2022-10-18T02:08:00.196Z,11.32
2022-10-18T02:10:51.697Z,12.45
2022-10-18T02:13:21.312Z,11.20
2022-10-18T02:15:54.664Z,10.88
2022-10-18T02:18:28.754Z,11.52
2022-10-18T02:20:56.962Z,12.32
2022-10-18T02:23:26.413Z,14.02
2022-10-18T02:25:53.576Z,17.42
2022-10-18T02:28:20.773Z,13.73
2022-10-18T02:31:12.431Z,14.85
2022-10-18T02:33:57.026Z,12.95
2022-10-18T02:36:33.634Z,12.30
2022-10-18T02:39:07.937Z,9.60
2022-10-18T02:41:34.684Z,8.18
2022-10-18T02:44:01.309Z,15.85
2022-10-18T02:48:59.406Z,15.07
2022-10-18T02:51:26.330Z,17.48
2022-10-18T02:53:53.106Z,10.93
2022-10-18T02:56:19.704Z,12.00
2022-10-18T02:58:46.445Z,10.88
2022-10-18T03:01:13.135Z,12.05
2022-10-18T03:03:40.092Z,13.85
2022-10-18T03:06:06.687Z,14.45
2022-10-18T03:08:33.534Z,12.90
2022-10-18T03:11:00.192Z,16.13
2022-10-18T03:13:26.854Z,14.25
2022-10-18T03:15:53.500Z,10.85
2022-10-18T03:18:20.142Z,11.50
2022-10-18T03:20:46.810Z,12.25
2022-10-18T03:23:13.426Z,13.93
2022-10-18T03:25:41.709Z,12.00
2022-10-18T03:28:11.242Z,11.98
2022-10-18T03:30:38.962Z,10.65
2022-10-18T03:33:06.739Z,19.92
2022-10-18T03:35:33.358Z,13.32
2022-10-18T03:38:00.086Z,14.20
2022-10-18T03:40:26.781Z,11.25
2022-10-18T03:42:53.496Z,14.07
2022-10-18T03:45:20.091Z,9.50
2022-10-18T03:47:46.712Z,12.05
2022-10-18T03:50:13.357Z,12.18
2022-10-18T03:52:40.037Z,12.65
2022-10-18T03:55:07.213Z,17.98
2022-10-18T03:57:33.859Z,13.20
2022-10-18T04:00:00.434Z,15.30
2022-10-18T04:02:27.073Z,17.83
2022-10-18T04:04:53.658Z,15.65
2022-10-18T04:07:20.255Z,15.52
2022-10-18T04:09:46.974Z,10.05
2022-10-18T04:12:13.581Z,16.50
2022-10-18T04:14:40.185Z,12.77
2022-10-18T04:17:06.802Z,10.68
2022-10-18T04:19:33.555Z,15.23
2022-10-18T04:22:00.134Z,16.23
2022-10-18T04:24:26.737Z,15.57
2022-10-18T04:26:53.350Z,16.33
2022-10-18T04:29:19.974Z,12.68
2022-10-18T04:31:46.644Z,18.50
2022-10-18T04:34:13.258Z,13.13
2022-10-18T04:36:39.912Z,18.25
2022-10-18T04:39:06.526Z,18.75
2022-10-18T04:41:33.174Z,21.58
2022-10-18T04:43:59.963Z,14.93
2022-10-18T04:46:26.608Z,20.05
2022-10-18T04:48:53.242Z,15.10
2022-10-18T04:51:19.936Z,22.33
2022-10-18T04:53:46.533Z,14.40
2022-10-18T04:56:13.230Z,13.68
2022-10-18T04:58:39.901Z,18.85
2022-10-18T05:01:07.695Z,16.42
2022-10-18T05:03:34.752Z,16.10
2022-10-18T05:06:02.822Z,12.67
2022-10-18T05:08:30.837Z,14.93
2022-10-18T05:10:57.506Z,15.57
2022-10-18T05:13:24.405Z,19.73
2022-10-18T05:15:51.261Z,19.13
2022-10-18T05:18:18.280Z,20.02
2022-10-18T05:20:44.937Z,17.83
2022-10-18T05:23:11.559Z,20.13
2022-10-18T05:25:42.478Z,24.35
2022-10-18T05:28:27.193Z,19.02
2022-10-18T05:31:00.303Z,20.60
2022-10-18T05:33:27.016Z,26.23
2022-10-18T05:35:53.633Z,22.15
2022-10-18T05:38:20.714Z,23.25
2022-10-18T05:40:47.332Z,20.97
2022-10-18T05:43:13.994Z,20.23
2022-10-18T05:45:40.593Z,19.98
2022-10-18T05:48:08.183Z,26.55
2022-10-18T05:50:38.058Z,20.52
2022-10-18T05:53:12.677Z,22.70
2022-10-18T05:55:51.502Z,25.60
2022-10-18T05:58:18.071Z,31.33
2022-10-18T06:00:44.693Z,23.80
2022-10-18T06:03:11.343Z,22.95
2022-10-18T06:08:10.375Z,19.67
2022-10-18T06:10:40.215Z,19.80
2022-10-18T06:13:06.806Z,53.72
2022-10-18T06:15:33.477Z,54.08
2022-10-18T06:18:00.192Z,37.63
2022-10-18T06:20:26.759Z,24.38
2022-10-18T06:22:53.697Z,33.92
2022-10-18T06:25:20.293Z,28.33
2022-10-18T06:27:46.998Z,44.95
2022-10-18T06:30:13.757Z,29.65
2022-10-18T06:32:40.365Z,129.73
2022-10-18T06:35:07.404Z,60.05
2022-10-18T06:37:35.688Z,78.33
2022-10-18T06:40:02.726Z,56.85
2022-10-18T06:42:29.309Z,117.93
2022-10-18T06:44:55.964Z,149.35
2022-10-18T06:47:22.588Z,138.90
2022-10-18T06:49:49.256Z,206.38
2022-10-18T06:52:20.783Z,97.95
2022-10-18T06:54:47.401Z,111.78
2022-10-18T06:57:14.023Z,126.07
2022-10-18T06:59:40.688Z,107.50
2022-10-18T07:02:07.414Z,115.38
2022-10-18T07:04:34.170Z,79.90
2022-10-18T07:07:00.814Z,60.78
2022-10-18T07:09:27.431Z,68.05
2022-10-18T07:11:54.157Z,58.47
2022-10-18T07:14:20.754Z,143.70
2022-10-18T07:16:47.463Z,197.48
2022-10-18T07:19:15.012Z,92.88
2022-10-18T07:21:41.716Z,178.45
2022-10-18T07:24:08.342Z,158.80
2022-10-18T07:26:35.757Z,135.38
2022-10-18T07:29:09.150Z,175.20
2022-10-18T07:31:36.730Z,165.82
2022-10-18T07:34:09.585Z,116.18
2022-10-18T07:36:36.814Z,274.88
2022-10-18T07:39:06.911Z,224.88
2022-10-18T07:41:34.598Z,143.07
2022-10-18T07:44:02.554Z,201.60
2022-10-18T07:48:55.727Z,124.05
2022-10-18T07:51:22.438Z,60.00
2022-10-18T07:53:49.192Z,161.70
2022-10-18T07:56:20.936Z,109.45
2022-10-18T07:58:51.351Z,33.13
2022-10-18T08:01:19.441Z,15.48
2022-10-18T08:03:50.004Z,56.35
2022-10-18T08:06:19.019Z,50.85
2022-10-18T08:08:46.107Z,31.15
2022-10-18T08:11:21.542Z,25.70
2022-10-18T08:13:53.050Z,24.77
2022-10-18T08:16:28.250Z,23.17
2022-10-18T08:18:57.422Z,24.67
2022-10-18T08:21:24.360Z,29.05
2022-10-18T08:23:51.075Z,28.15
2022-10-18T08:26:20.163Z,23.98
2022-10-18T08:28:53.900Z,27.50
2022-10-18T08:31:25.672Z,27.77
2022-10-18T08:33:54.302Z,23.33
2022-10-18T08:36:20.898Z,26.05
2022-10-18T08:38:49.315Z,26.00
2022-10-18T08:41:46.366Z,22.17
2022-10-18T08:44:27.380Z,22.70
2022-10-18T08:47:04.882Z,26.58
2022-10-18T08:49:45.562Z,28.05
2022-10-18T08:52:31.187Z,26.33
2022-10-18T08:55:08.871Z,18.42
2022-10-18T08:57:35.777Z,26.40
2022-10-18T09:00:14.893Z,25.93
2022-10-18T09:02:47.389Z,25.40
2022-10-18T09:05:31.742Z,25.30
2022-10-18T09:08:26.578Z,27.17
2022-10-18T09:11:03.049Z,18.80
2022-10-18T09:13:51.130Z,25.23
2022-10-18T09:16:27.859Z,27.52
2022-10-18T09:19:03.072Z,21.15
2022-10-18T09:21:46.271Z,19.27
2022-10-18T09:24:18.451Z,21.20
2022-10-18T09:26:55.108Z,15.82
2022-10-18T09:29:37.953Z,16.35
2022-10-18T09:32:18.945Z,15.00
2022-10-18T09:34:45.581Z,17.33
2022-10-18T09:37:15.150Z,13.02
2022-10-18T09:39:43.046Z,19.73
2022-10-18T09:45:03.831Z,18.73
2022-10-18T09:47:47.951Z,21.70
2022-10-18T09:50:34.956Z,16.80
2022-10-18T09:53:08.505Z,14.43
2022-10-18T09:55:43.105Z,15.32
2022-10-18T09:58:12.907Z,13.82
2022-10-18T10:00:50.935Z,18.63
2022-10-18T10:03:19.457Z,16.13
2022-10-18T10:05:46.562Z,14.20
2022-10-18T10:08:13.237Z,20.83
2022-10-18T10:10:47.569Z,10.05
2022-10-18T10:13:26.085Z,12.90
2022-10-18T10:15:58.334Z,15.75
2022-10-18T10:18:30.135Z,17.33
2022-10-18T10:21:00.282Z,13.57
2022-10-18T10:23:41.780Z,17.35
2022-10-18T10:26:27.975Z,15.30
2022-10-18T10:28:55.293Z,19.77
2022-10-18T10:31:24.641Z,16.48
2022-10-18T10:34:22.860Z,11.90
2022-10-18T10:36:53.329Z,12.27
2022-10-18T10:39:23.124Z,17.17
2022-10-18T10:41:52.937Z,14.23
2022-10-18T10:44:23.363Z,8.88
2022-10-18T10:46:51.705Z,12.43
2022-10-18T10:49:40.987Z,15.10
2022-10-18T10:52:28.025Z,11.00
2022-10-18T10:57:47.319Z,11.05
2022-10-18T11:00:52.356Z,14.70
2022-10-18T11:03:29.126Z,12.95
2022-10-18T11:05:58.914Z,10.23
2022-10-18T11:08:28.260Z,11.27
2022-10-18T11:11:22.939Z,19.48
2022-10-18T11:14:20.627Z,17.70
2022-10-18T11:17:13.863Z,10.52
2022-10-18T11:20:03.453Z,13.35
2022-10-18T11:22:36.253Z,12.40
2022-10-18T11:25:08.217Z,8.48
2022-10-18T11:27:46.646Z,11.30
2022-10-18T11:30:33.259Z,13.63
2022-10-18T11:33:50.064Z,15.80
2022-10-18T11:36:56.163Z,12.13
2022-10-18T11:39:47.224Z,12.30
2022-10-18T11:42:40.072Z,12.85
2022-10-18T11:48:08.449Z,13.43
2022-10-18T11:50:47.561Z,7.55
2022-10-18T11:53:28.091Z,14.70
2022-10-18T11:55:54.870Z,14.15
2022-10-18T11:58:35.233Z,12.45
2022-10-18T12:01:12.558Z,11.85
2022-10-18T12:04:02.688Z,12.43
2022-10-18T12:06:38.871Z,7.40
2022-10-18T12:09:30.084Z,12.80
2022-10-18T12:12:21.142Z,6.60
2022-10-18T12:14:50.511Z,8.43
2022-10-18T12:17:42.752Z,6.88
2022-10-18T12:20:31.196Z,9.15
2022-10-18T12:23:10.196Z,8.05
2022-10-18T12:25:40.397Z,11.25
2022-10-18T12:28:24.534Z,11.93
2022-10-18T12:30:59.374Z,10.07
2022-10-18T12:33:33.228Z,8.93
2022-10-18T12:36:18.866Z,9.35
2022-10-18T12:38:49.843Z,11.38
2022-10-18T12:41:28.002Z,10.25
2022-10-18T12:44:04.540Z,12.90
2022-10-18T12:46:46.899Z,15.15
2022-10-18T12:49:18.129Z,8.80
2022-10-18T12:51:55.236Z,11.57
2022-10-18T12:54:38.424Z,13.60
2022-10-18T12:57:18.024Z,6.38
2022-10-18T12:59:44.712Z,10.15
2022-10-18T13:02:23.317Z,11.48
2022-10-18T13:04:53.691Z,7.03
2022-10-18T13:07:33.890Z,10.35
2022-10-18T13:10:09.745Z,10.38
2022-10-18T13:13:12.146Z,9.95
2022-10-18T13:16:20.958Z,9.32
2022-10-18T13:18:55.573Z,10.05
2022-10-18T13:21:28.313Z,6.65
2022-10-18T13:24:01.006Z,6.88
2022-10-18T13:27:04.164Z,9.82
2022-10-18T13:29:57.147Z,9.85
2022-10-18T13:32:29.649Z,10.55
2022-10-18T13:34:56.539Z,10.38
2022-10-18T13:37:25.625Z,9.88
2022-10-18T13:40:25.409Z,13.02
2022-10-18T13:42:52.074Z,9.27
2022-10-18T13:45:31.038Z,6.70
2022-10-18T13:48:44.670Z,9.77
2022-10-18T13:51:42.487Z,6.97
2022-10-18T13:54:09.031Z,8.35
2022-10-18T13:57:09.235Z,8.02
2022-10-18T13:59:54.139Z,9.65
2022-10-18T14:02:51.770Z,10.68
2022-10-18T14:05:25.342Z,11.57
2022-10-18T14:08:01.525Z,7.05
2022-10-18T14:11:02.507Z,5.60
2022-10-18T14:13:51.743Z,8.85
2022-10-18T14:16:30.524Z,7.72
2022-10-18T14:19:08.778Z,7.80
2022-10-18T14:21:41.673Z,8.63
2022-10-18T14:24:22.155Z,8.35
2022-10-18T14:27:24.322Z,8.52
2022-10-18T14:30:10.138Z,9.90
2022-10-18T14:32:36.950Z,11.80
2022-10-18T14:37:53.182Z,9.57
2022-10-18T14:40:34.688Z,8.02
2022-10-18T14:43:03.598Z,6.88
2022-10-18T14:45:30.351Z,7.93
2022-10-18T14:48:20.612Z,9.70
2022-10-18T14:50:59.192Z,5.63
2022-10-18T14:53:32.515Z,6.68
2022-10-18T14:56:00.954Z,7.10
2022-10-18T14:58:28.232Z,7.18
2022-10-18T15:03:23.089Z,10.32
2022-10-18T15:05:54.558Z,9.52
2022-10-18T15:08:24.745Z,5.10
2022-10-18T15:10:52.321Z,8.02
2022-10-18T15:13:19.242Z,5.80
2022-10-18T15:15:46.213Z,6.47
2022-10-18T15:21:24.517Z,5.10
2022-10-18T15:23:52.229Z,8.68
2022-10-18T15:26:29.581Z,5.40
2022-10-18T15:29:01.448Z,7.15
2022-10-18T15:31:37.193Z,9.55
2022-10-18T15:34:27.448Z,8.35
2022-10-18T15:36:59.022Z,6.20
2022-10-18T15:39:28.048Z,9.13
2022-10-18T15:41:55.690Z,11.40
2022-10-18T15:45:02.211Z,7.22
2022-10-18T15:47:28.900Z,10.55
2022-10-18T15:50:03.928Z,8.17
2022-10-18T15:52:48.440Z,6.72
2022-10-18T15:55:34.059Z,7.40
2022-10-18T15:58:06.023Z,6.03
2022-10-18T16:00:32.992Z,8.50
2022-10-18T16:02:59.830Z,8.60
2022-10-18T16:05:27.206Z,11.75
2022-10-18T16:07:56.924Z,8.90
2022-10-18T16:10:23.709Z,6.60
2022-10-18T16:12:50.372Z,7.97
2022-10-18T16:15:17.150Z,9.77
2022-10-18T16:17:44.358Z,11.65
2022-10-18T16:20:24.872Z,12.75
2022-10-18T16:22:54.654Z,6.82
2022-10-18T16:25:21.377Z,7.18
2022-10-18T16:27:48.019Z,8.65
2022-10-18T16:30:21.086Z,5.82
2022-10-18T16:32:51.830Z,5.60
2022-10-18T16:35:18.634Z,7.72
2022-10-18T16:37:45.328Z,8.57
2022-10-18T16:40:25.934Z,7.07
2022-10-18T16:42:52.607Z,8.20
2022-10-18T16:45:19.272Z,10.95
2022-10-18T16:47:46.491Z,179.77
2022-10-18T16:50:16.484Z,11.73
2022-10-18T16:52:45.012Z,11.30
2022-10-18T16:55:22.607Z,12.85
2022-10-18T17:00:23.559Z,8.35
2022-10-18T17:02:50.455Z,12.93
2022-10-18T17:05:17.867Z,15.30
2022-10-18T17:10:14.317Z,64.38
2022-10-18T17:12:41.098Z,22.65
2022-10-18T17:15:08.841Z,23.67
2022-10-18T17:17:36.439Z,24.58
2022-10-18T17:20:07.247Z,39.80
2022-10-18T17:22:36.994Z,51.10
2022-10-18T17:25:03.814Z,47.38
2022-10-18T17:27:30.541Z,55.70
2022-10-18T17:29:57.663Z,40.53
2022-10-18T17:32:24.320Z,48.40
2022-10-18T17:34:54.457Z,37.63
2022-10-18T17:37:21.208Z,25.85
2022-10-18T17:39:48.041Z,26.35
2022-10-18T17:42:14.666Z,23.05
2022-10-18T17:44:43.177Z,19.75
2022-10-18T17:47:12.681Z,20.10
2022-10-18T17:49:39.753Z,20.80
2022-10-18T17:52:07.159Z,18.33
2022-10-18T17:54:33.832Z,26.02
2022-10-18T17:57:03.660Z,18.92
2022-10-18T17:59:30.308Z,18.92
2022-10-18T18:01:56.955Z,13.05
2022-10-18T18:04:24.159Z,13.48
2022-10-18T18:06:52.773Z,14.77
2022-10-18T18:09:19.634Z,14.85
2022-10-18T18:11:49.605Z,22.23
2022-10-18T18:14:19.428Z,19.67
2022-10-18T18:16:47.501Z,18.58
2022-10-18T18:19:18.057Z,25.52
2022-10-18T18:21:46.132Z,26.40
2022-10-18T18:24:14.023Z,26.40
2022-10-18T18:26:42.567Z,18.70
2022-10-18T18:29:13.320Z,21.60
2022-10-18T18:31:43.735Z,25.42
2022-10-18T18:34:10.901Z,14.77
2022-10-18T18:36:40.297Z,16.15
2022-10-18T18:39:14.556Z,11.93
2022-10-18T18:41:41.186Z,23.70
2022-10-18T18:44:07.829Z,21.95
2022-10-18T18:46:38.867Z,22.92
2022-10-18T18:49:07.085Z,36.22
2022-10-18T18:51:37.346Z,28.05
2022-10-18T18:54:04.808Z,19.13
2022-10-18T18:56:34.442Z,22.65
2022-10-18T18:59:01.267Z,21.67
2022-10-18T19:01:32.892Z,16.88
2022-10-18T19:04:00.463Z,19.73
2022-10-18T19:06:32.791Z,19.67
2022-10-18T19:09:04.686Z,18.70
2022-10-18T19:11:37.887Z,20.90
2022-10-18T19:14:06.955Z,27.85
2022-10-18T19:16:38.969Z,25.50
2022-10-18T19:19:06.819Z,23.42
2022-10-18T19:21:39.134Z,22.88
2022-10-18T19:24:06.474Z,23.88
2022-10-18T19:26:37.437Z,28.05
2022-10-18T19:29:14.930Z,23.13
2022-10-18T19:31:42.715Z,23.95
2022-10-18T19:34:11.544Z,24.75
2022-10-18T19:36:40.176Z,22.08
2022-10-18T19:39:08.767Z,14.27
2022-10-18T19:41:35.577Z,19.25
2022-10-18T19:44:02.231Z,16.30
2022-10-18T19:46:28.914Z,21.75
2022-10-18T19:48:55.568Z,18.33
2022-10-18T19:51:26.814Z,15.73
2022-10-18T19:53:56.168Z,19.70
2022-10-18T19:56:24.456Z,16.60
2022-10-18T19:58:51.375Z,16.48
2022-10-18T20:01:19.060Z,21.00
2022-10-18T20:03:47.310Z,13.38
2022-10-18T20:06:14.174Z,14.52
2022-10-18T20:11:18.897Z,17.38
2022-10-18T20:13:45.916Z,10.90
2022-10-18T20:16:15.395Z,19.92
2022-10-18T20:18:45.808Z,7.47
2022-10-18T20:21:14.674Z,12.18
2022-10-18T20:23:42.743Z,9.60
2022-10-18T20:26:17.965Z,10.95
2022-10-18T20:28:48.881Z,7.30
2022-10-18T20:31:19.637Z,8.35
2022-10-18T20:33:47.691Z,8.75
2022-10-18T20:38:47.527Z,9.63
2022-10-18T20:41:23.118Z,7.10
2022-10-18T20:44:13.424Z,11.73
2022-10-18T20:46:40.973Z,8.50
2022-10-18T20:49:08.949Z,11.82
2022-10-18T20:56:34.342Z,8.18
2022-10-18T20:59:01.727Z,5.57
2022-10-18T21:01:31.448Z,12.77
2022-10-18T21:04:01.297Z,11.52
2022-10-18T21:06:36.139Z,53.80
2022-10-18T21:09:05.722Z,26.27
2022-10-18T21:11:37.952Z,6.47
2022-10-18T21:14:05.813Z,9.60
2022-10-18T21:16:35.744Z,13.02
2022-10-18T21:19:07.088Z,9.85
2022-10-18T21:21:33.786Z,7.88
2022-10-18T21:24:06.888Z,6.85
2022-10-18T21:26:35.352Z,7.97
2022-10-18T21:29:03.183Z,7.93
2022-10-18T21:34:12.786Z,8.13
2022-10-18T21:36:40.396Z,15.88
2022-10-18T21:39:09.329Z,7.53
2022-10-18T21:41:36.452Z,9.15
2022-10-18T21:44:06.871Z,11.65
2022-10-18T21:46:36.596Z,7.65
2022-10-18T21:49:03.337Z,7.30
2022-10-18T21:51:29.973Z,8.95
2022-10-18T21:53:57.858Z,6.82
2022-10-18T21:56:29.800Z,7.88
2022-10-18T21:58:56.918Z,8.57
2022-10-18T22:01:29.585Z,9.63
2022-10-18T22:03:56.787Z,10.15
2022-10-18T22:06:24.782Z,11.63
2022-10-18T22:11:33.791Z,31.88
2022-10-18T22:14:00.626Z,50.50
2022-10-18T22:16:27.336Z,17.88
2022-10-18T22:18:58.580Z,6.43
2022-10-18T22:21:25.338Z,8.98
2022-10-18T22:23:54.296Z,7.38
2022-10-18T22:26:23.698Z,5.47
2022-10-18T22:29:02.748Z,8.93
2022-10-18T22:31:32.176Z,8.07
2022-10-18T22:34:01.340Z,7.18
2022-10-18T22:36:27.933Z,6.47
2022-10-18T22:38:55.557Z,8.70
2022-10-18T22:41:22.277Z,7.68
2022-10-18T22:43:50.600Z,10.38
2022-10-18T22:46:17.732Z,7.45
2022-10-18T22:48:45.278Z,12.65
2022-10-18T22:51:12.346Z,8.98
2022-10-18T22:53:40.043Z,6.87
2022-10-18T22:56:09.072Z,6.53
2022-10-18T22:58:35.740Z,11.20
2022-10-18T23:01:07.907Z,8.40
2022-10-18T23:03:35.102Z,12.90
2022-10-18T23:06:05.724Z,13.63
2022-10-18T23:08:32.788Z,10.35
2022-10-18T23:11:00.174Z,6.32
2022-10-18T23:13:27.696Z,11.00
2022-10-18T23:16:04.908Z,8.55
2022-10-18T23:18:32.969Z,7.20
2022-10-18T23:21:04.492Z,10.40
2022-10-18T23:23:36.332Z,3.72
2022-10-18T23:26:06.130Z,14.20
2022-10-18T23:28:41.971Z,11.40
2022-10-18T23:31:10.196Z,8.07
2022-10-18T23:33:37.569Z,10.85
2022-10-18T23:36:05.749Z,9.73
2022-10-18T23:38:32.993Z,14.30
2022-10-18T23:41:03.343Z,13.48
2022-10-18T23:43:32.755Z,11.17
2022-10-18T23:45:59.480Z,8.57
2022-10-18T23:48:26.136Z,12.02
2022-10-18T23:50:52.784Z,11.13
2022-10-18T23:53:20.058Z,10.30
2022-10-18T23:55:56.776Z,9.43
2022-10-18T23:58:24.185Z,17.70
